Time;durP1;ratioP1;P1;durP2;ratioP2;P2;SDS_P1;SDS_P2;PMS_P1;PMS_P2;Temp;Humidity;BMP_temperature;BMP_pressure;BME280_temperature;BME280_humidity;BME280_pressure;Samples;Min_cycle;Max_cycle;Signal;HPM_P1;HPM_P2
2022/03/10 00:00:29;;;;;;;25.57;19.93;;;3.90;1.00;4.40;101372.00;;;;4993848;28;20468;-76
2022/03/10 00:02:57;;;;;;;31.07;19.77;;;3.90;1.00;4.30;101367.00;;;;4984870;28;20463;-75
2022/03/10 00:05:27;;;;;;;25.50;20.07;;;3.80;1.00;4.30;101379.00;;;;4986362;28;20481;-76
2022/03/10 00:07:55;;;;;;;30.30;22.10;;;3.70;1.00;4.20;101389.00;;;;4980960;28;20446;-74
2022/03/10 00:10:24;;;;;;;28.50;19.90;;;3.70;1.00;4.10;101365.00;;;;4987465;28;20955;-75
2022/03/10 00:12:54;;;;;;;25.40;19.83;;;3.60;1.00;4.10;101391.00;;;;4988606;28;20481;-74
2022/03/10 00:15:24;;;;;;;25.90;19.93;;;3.60;1.00;4.10;101384.00;;;;4984575;28;20477;-75
2022/03/10 00:17:53;;;;;;;24.40;18.90;;;3.50;1.00;4.00;101384.00;;;;4991189;28;20485;-75
2022/03/10 00:20:23;;;;;;;27.93;19.30;;;3.50;1.00;3.90;101388.00;;;;4981514;28;20470;-80
2022/03/10 00:22:55;;;;;;;25.47;17.30;;;3.40;1.00;4.00;101387.00;;;;4993840;28;20462;-76
2022/03/10 00:25:23;;;;;;;24.10;16.70;;;3.40;1.00;4.20;101375.00;;;;4992758;28;21795;-75
2022/03/10 00:27:52;;;;;;;28.53;17.83;;;3.40;1.00;4.10;101380.00;;;;4986920;28;20581;-75
2022/03/10 00:30:21;;;;;;;20.70;15.17;;;3.50;1.00;4.10;101379.00;;;;4984457;28;20553;-74
2022/03/10 00:32:52;;;;;;;25.50;19.50;;;3.50;1.00;4.10;101372.00;;;;4986465;28;20805;-74
2022/03/10 00:35:24;;;;;;;24.50;17.37;;;3.80;1.00;4.00;101393.00;;;;4984662;28;20573;-75
2022/03/10 00:38:00;;;;;;;25.57;17.90;;;3.50;1.00;4.00;101384.00;;;;5003849;28;20490;-74
2022/03/10 00:40:30;;;;;;;23.70;17.43;;;3.50;1.00;4.10;101380.00;;;;4984280;28;20469;-75
2022/03/10 00:42:58;;;;;;;22.10;17.20;;;3.50;1.00;4.10;101356.00;;;;4986709;28;20465;-76
2022/03/10 00:45:26;;;;;;;20.40;15.30;;;3.50;1.00;4.30;101394.00;;;;4983968;28;21281;-75
2022/03/10 00:47:55;;;;;;;23.83;17.80;;;3.60;1.00;4.30;101394.00;;;;4987149;28;20521;-75
2022/03/10 00:50:24;;;;;;;24.70;19.90;;;3.60;1.00;4.20;101387.00;;;;5004533;28;20454;-75
2022/03/10 00:52:53;;;;;;;25.73;18.63;;;3.60;1.00;4.10;101397.00;;;;4986537;28;20960;-75
2022/03/10 00:55:23;;;;;;;22.20;17.47;;;3.60;1.00;4.50;101396.00;;;;4990420;28;20478;-74
2022/03/10 00:57:52;;;;;;;22.03;17.53;;;4.10;1.00;4.50;101375.00;;;;5004271;28;20486;-76
2022/03/10 01:00:24;;;;;;;22.43;17.33;;;3.80;1.00;4.50;101392.00;;;;5004831;28;20761;-74
2022/03/10 01:02:52;;;;;;;22.10;16.43;;;3.80;1.00;4.30;101391.00;;;;5026815;28;20462;-76
2022/03/10 01:05:21;;;;;;;22.00;17.93;;;3.60;1.00;4.10;101395.00;;;;4995506;28;20502;-75
2022/03/10 01:07:49;;;;;;;21.40;15.77;;;3.50;1.00;4.20;101394.00;;;;5007312;28;20513;-74
2022/03/10 01:10:19;;;;;;;21.00;16.67;;;3.60;1.00;4.00;101392.00;;;;5018600;28;20493;-76
2022/03/10 01:12:49;;;;;;;20.80;16.53;;;3.30;1.00;4.00;101394.00;;;;5028133;28;20528;-75
2022/03/10 01:15:20;;;;;;;23.73;17.93;;;3.40;1.00;4.10;101400.00;;;;5028289;28;20477;-75
2022/03/10 01:17:49;;;;;;;19.57;17.10;;;3.40;1.00;4.00;101392.00;;;;5008236;28;20471;-76
2022/03/10 01:20:18;;;;;;;22.60;16.97;;;3.40;1.00;3.70;101393.00;;;;4997202;28;20564;-75
2022/03/10 01:22:47;;;;;;;23.57;17.63;;;3.30;1.00;3.80;101391.00;;;;4995193;28;20989;-76
2022/03/10 01:25:19;;;;;;;23.97;18.43;;;3.30;1.00;3.70;101400.00;;;;5001110;28;20479;-75
2022/03/10 01:27:49;;;;;;;21.43;17.77;;;3.20;1.00;3.60;101390.00;;;;4986263;28;20469;-74
2022/03/10 01:30:17;;;;;;;25.33;18.40;;;3.10;1.00;3.50;101391.00;;;;4986077;28;20456;-75
2022/03/10 01:32:47;;;;;;;29.57;19.77;;;3.00;1.00;3.50;101393.00;;;;4998552;28;20458;-75
2022/03/10 01:35:17;;;;;;;26.00;20.00;;;3.00;1.00;3.40;101387.00;;;;4986754;28;20474;-75
2022/03/10 01:37:46;;;;;;;23.20;18.33;;;2.90;1.00;3.40;101391.00;;;;4986795;28;21629;-75
2022/03/10 01:40:17;;;;;;;27.17;20.00;;;2.80;1.00;3.50;101392.00;;;;5002260;28;20455;-73
2022/03/10 01:42:47;;;;;;;24.77;18.70;;;2.90;1.00;3.60;101371.00;;;;4983023;28;20458;-73
2022/03/10 01:45:18;;;;;;;28.00;20.20;;;3.00;1.00;3.40;101381.00;;;;4980321;28;20480;-74
2022/03/10 01:47:48;;;;;;;27.80;20.60;;;2.90;1.00;3.50;101395.00;;;;4996623;28;20470;-74
2022/03/10 01:50:17;;;;;;;25.37;21.10;;;2.90;1.00;3.60;101382.00;;;;4985615;28;20888;-74
2022/03/10 01:52:47;;;;;;;32.63;21.60;;;2.90;1.00;3.50;101392.00;;;;5005195;28;20501;-75
2022/03/10 01:55:15;;;;;;;32.90;23.17;;;2.90;1.00;3.40;101393.00;;;;4991644;28;21135;-74
2022/03/10 01:57:45;;;;;;;28.00;21.50;;;2.90;1.00;3.30;101372.00;;;;4997029;28;20488;-74
2022/03/10 02:00:16;;;;;;;34.20;22.80;;;2.80;1.00;52.70;158060.00;;;;5030204;28;20446;-74
2022/03/10 02:02:48;;;;;;;27.83;18.13;;;2.70;1.00;3.30;101409.00;;;;5019151;28;20449;-73
2022/03/10 02:05:17;;;;;;;25.10;18.40;;;2.70;1.00;3.40;101393.00;;;;5019474;28;20469;-73
2022/03/10 02:10:32;;;;;;;23.67;18.43;;;2.70;1.00;3.30;101380.00;;;;5015503;28;20522;-73
2022/03/10 02:13:00;;;;;;;22.40;20.00;;;2.70;1.00;3.30;101407.00;;;;5027376;28;20525;-74
2022/03/10 02:18:20;;;;;;;23.70;17.90;;;2.80;1.00;3.50;101400.00;;;;4985011;28;20467;-74
2022/03/10 02:20:48;;;;;;;19.80;15.93;;;2.80;1.00;3.40;101363.00;;;;4995213;28;20498;-74
2022/03/10 02:23:19;;;;;;;24.03;18.00;;;2.80;1.00;3.30;101404.00;;;;5017007;28;20446;-75
2022/03/10 02:25:48;;;;;;;20.53;16.73;;;2.80;1.00;3.50;101396.00;;;;4991897;28;21100;-75
2022/03/10 02:28:18;;;;;;;19.77;15.87;;;3.00;1.00;3.70;101371.00;;;;4988011;28;20454;-74
2022/03/10 02:30:47;;;;;;;22.80;18.37;;;3.00;1.00;3.60;101401.00;;;;4983524;28;20960;-74
2022/03/10 02:33:15;;;;;;;27.17;20.70;;;2.90;1.00;3.50;101407.00;;;;4983531;28;20462;-75
2022/03/10 02:35:43;;;;;;;24.03;18.47;;;2.90;1.00;3.50;101412.00;;;;4985880;28;20874;-74
2022/03/10 02:38:19;;;;;;;25.97;18.50;;;2.90;1.00;3.40;101399.00;;;;5005566;28;21373;-75
2022/03/10 02:40:48;;;;;;;20.47;16.53;;;2.80;1.00;3.60;101418.00;;;;4986560;28;20504;-74
2022/03/10 02:43:17;;;;;;;24.87;17.03;;;2.90;1.00;217.30;158209.00;;;;5002116;28;20466;-74
2022/03/10 02:45:47;;;;;;;27.63;20.47;;;2.80;1.00;3.30;101413.00;;;;4988672;28;20478;-75
2022/03/10 02:48:16;;;;;;;22.60;18.90;;;2.80;1.00;3.40;101414.00;;;;5001071;28;20586;-75
2022/03/10 02:50:45;;;;;;;23.93;19.10;;;2.80;1.00;3.40;101413.00;;;;4987477;28;20464;-75
2022/03/10 02:53:15;;;;;;;29.20;18.63;;;2.80;1.00;3.40;101406.00;;;;4981020;28;20459;-75
2022/03/10 02:55:45;;;;;;;26.33;17.77;;;2.80;1.00;3.40;101404.00;;;;4983244;28;20474;-75
2022/03/10 02:58:14;;;;;;;22.70;18.67;;;2.80;1.00;3.20;101414.00;;;;4981291;28;20474;-75
2022/03/10 03:00:42;;;;;;;23.03;18.63;;;2.70;1.00;3.10;101414.00;;;;4982269;28;20469;-75
2022/03/10 03:03:11;;;;;;;21.30;18.13;;;2.60;1.00;3.10;101404.00;;;;4981627;28;20516;-74
2022/03/10 03:05:43;;;;;;;24.17;18.30;;;2.60;1.00;3.20;101423.00;;;;4996658;28;20552;-75
2022/03/10 03:08:11;;;;;;;22.00;16.80;;;2.50;1.00;3.10;101428.00;;;;4985263;28;20529;-75
2022/03/10 03:10:39;;;;;;;23.83;18.33;;;2.50;1.00;2.90;101408.00;;;;5001376;28;20504;-75
2022/03/10 03:13:09;;;;;;;23.20;17.20;;;2.50;1.00;3.00;101412.00;;;;4983917;28;20480;-75
2022/03/10 03:15:38;;;;;;;25.00;19.00;;;2.40;1.00;3.00;101410.00;;;;4983978;28;20500;-74
2022/03/10 03:18:06;;;;;;;23.30;18.30;;;2.40;1.00;3.00;101401.00;;;;4985071;28;20486;-74
2022/03/10 03:20:35;;;;;;;23.60;19.77;;;2.40;1.00;2.60;101430.00;;;;4986327;28;20454;-75
2022/03/10 03:23:03;;;;;;;23.77;17.53;;;2.40;1.00;3.00;101431.00;;;;4984547;28;20529;-75
2022/03/10 03:25:31;;;;;;;21.10;17.13;;;2.40;1.00;2.90;101434.00;;;;4988212;28;20467;-75
2022/03/10 03:28:00;;;;;;;22.57;17.10;;;2.40;1.00;2.90;101441.00;;;;4982946;28;20463;-76
2022/03/10 03:30:29;;;;;;;20.40;17.60;;;2.30;1.00;2.80;101432.00;;;;4987146;28;20449;-76
2022/03/10 03:32:57;;;;;;;22.30;16.83;;;2.30;1.00;2.70;101444.00;;;;4987821;28;20947;-76
2022/03/10 03:35:26;;;;;;;19.00;16.43;;;2.20;1.00;2.70;101436.00;;;;4988159;28;20482;-75
2022/03/10 03:37:54;;;;;;;19.53;16.33;;;2.20;1.00;2.60;101433.00;;;;4988373;28;20482;-77
2022/03/10 03:40:23;;;;;;;20.47;17.20;;;2.10;1.00;2.60;101428.00;;;;5001743;28;21410;-76
2022/03/10 03:42:51;;;;;;;19.83;17.30;;;2.00;1.00;2.70;101439.00;;;;4992014;28;20853;-76
2022/03/10 03:45:19;;;;;;;22.93;16.33;;;2.10;1.00;2.70;101426.00;;;;4995113;28;20479;-76
2022/03/10 03:47:49;;;;;;;23.60;18.93;;;2.10;1.00;2.80;101427.00;;;;5005382;28;20449;-76
2022/03/10 03:50:18;;;;;;;21.67;18.47;;;2.10;1.00;2.80;101433.00;;;;5014256;28;20447;-76
2022/03/10 03:52:46;;;;;;;21.23;17.80;;;2.50;1.00;2.70;101438.00;;;;5003992;28;20466;-76
2022/03/10 03:55:15;;;;;;;23.70;18.07;;;2.10;1.00;2.70;101430.00;;;;5022135;28;20544;-77
2022/03/10 03:57:43;;;;;;;26.63;18.20;;;2.10;1.00;2.60;101436.00;;;;5013582;28;20570;-76
2022/03/10 04:00:15;;;;;;;24.90;18.13;;;2.10;1.00;2.60;101443.00;;;;4998274;28;20449;-76
2022/03/10 04:02:45;;;;;;;19.67;17.27;;;2.10;1.00;2.50;101440.00;;;;4993835;28;20446;-75
2022/03/10 04:05:16;;;;;;;26.20;18.90;;;2.10;1.00;2.50;101424.00;;;;4996619;28;20457;-76
2022/03/10 04:07:46;;;;;;;23.07;18.27;;;2.00;1.00;2.50;101444.00;;;;4991700;28;20463;-74
2022/03/10 04:10:17;;;;;;;24.13;16.73;;;1.90;1.00;2.40;101445.00;;;;4996102;28;20456;-75
2022/03/10 04:12:45;;;;;;;20.90;17.00;;;1.90;1.00;2.30;101448.00;;;;4992315;28;20461;-75
2022/03/10 04:15:16;;;;;;;20.57;16.43;;;1.90;1.00;2.50;101452.00;;;;4995176;28;20482;-75
2022/03/10 04:17:45;;;;;;;20.17;16.50;;;1.90;1.00;2.70;101448.00;;;;4994183;28;20819;-74
2022/03/10 04:20:13;;;;;;;21.20;16.20;;;2.00;1.00;2.60;101462.00;;;;5006594;28;20466;-75
2022/03/10 04:22:43;;;;;;;20.00;16.47;;;2.00;1.00;2.50;101449.00;;;;5000193;28;20451;-75
2022/03/10 04:25:12;;;;;;;21.23;16.50;;;1.90;1.00;2.40;101446.00;;;;4985788;28;20896;-76
2022/03/10 04:27:41;;;;;;;21.20;17.00;;;1.90;1.00;2.40;101429.00;;;;4994049;28;20860;-76
2022/03/10 04:30:11;;;;;;;21.03;17.50;;;1.90;1.00;2.60;101433.00;;;;4989538;28;20451;-75
2022/03/10 04:32:44;;;;;;;19.50;15.93;;;1.90;1.00;2.60;101422.00;;;;4992792;28;20441;-75
2022/03/10 04:35:15;;;;;;;20.70;17.37;;;1.90;1.00;2.50;101436.00;;;;4993134;28;20453;-75
2022/03/10 04:37:48;;;;;;;22.27;17.73;;;1.90;1.00;2.50;101395.00;;;;5007704;28;21321;-76
2022/03/10 04:40:17;;;;;;;25.43;18.37;;;1.90;1.00;2.40;101426.00;;;;4993440;28;20450;-77
2022/03/10 04:42:46;;;;;;;22.40;18.00;;;1.90;1.00;2.50;101406.00;;;;4991424;28;21593;-74
2022/03/10 04:45:15;;;;;;;29.70;18.73;;;1.90;1.00;2.40;101430.00;;;;4993142;28;20841;-75
2022/03/10 04:47:43;;;;;;;22.93;17.20;;;1.90;1.00;2.20;101419.00;;;;4996714;28;20473;-76
2022/03/10 04:50:14;;;;;;;18.43;15.50;;;2.10;1.00;2.40;66784.00;;;;4997575;28;20530;-77
2022/03/10 04:52:43;;;;;;;19.57;17.37;;;1.80;1.00;2.40;101428.00;;;;4995827;28;20976;-77
2022/03/10 04:55:14;;;;;;;22.10;17.50;;;1.80;1.00;2.40;101418.00;;;;5002577;28;20536;-75
2022/03/10 04:57:43;;;;;;;23.10;17.20;;;1.90;1.00;2.50;101420.00;;;;5020914;28;20454;-78
2022/03/10 05:00:16;;;;;;;21.83;17.30;;;2.20;1.00;2.40;101421.00;;;;5010644;28;20562;-76
2022/03/10 05:02:45;;;;;;;22.10;16.77;;;1.90;1.00;2.40;101397.00;;;;5027186;28;20462;-79
2022/03/10 05:05:14;;;;;;;23.03;17.43;;;1.90;1.00;2.50;101428.00;;;;5014321;28;20446;-78
2022/03/10 05:07:43;;;;;;;23.90;16.23;;;1.90;1.00;2.60;101405.00;;;;5018311;28;20473;-78
2022/03/10 05:10:14;;;;;;;27.23;17.87;;;2.00;1.00;2.40;101437.00;;;;5019697;28;20458;-76
2022/03/10 05:12:48;;;;;;;19.90;16.43;;;1.90;1.00;2.30;101418.00;;;;5022545;28;20464;-77
2022/03/10 05:15:20;;;;;;;22.97;18.17;;;1.70;1.00;2.20;101426.00;;;;5019141;28;20458;-74
2022/03/10 05:17:49;;;;;;;23.10;17.33;;;1.70;1.00;2.10;101404.00;;;;5007846;28;20468;-76
2022/03/10 05:20:18;;;;;;;22.67;16.83;;;1.60;1.00;2.30;101432.00;;;;5004306;28;20489;-76
2022/03/10 05:22:49;;;;;;;27.13;18.20;;;1.60;1.00;2.20;101440.00;;;;4998850;28;20450;-74
2022/03/10 05:25:22;;;;;;;25.87;18.70;;;1.60;1.00;2.10;101427.00;;;;5005172;28;20484;-75
2022/03/10 05:27:51;;;;;;;25.50;17.67;;;1.60;1.00;2.30;101414.00;;;;4996136;28;21519;-76
2022/03/10 05:30:21;;;;;;;21.80;17.23;;;1.60;1.00;2.30;101425.00;;;;4997249;28;20545;-76
2022/03/10 05:32:50;;;;;;;22.53;18.03;;;1.70;1.00;2.30;101431.00;;;;4990377;28;20458;-76
2022/03/10 05:35:19;;;;;;;23.60;17.60;;;1.80;1.00;2.30;101443.00;;;;4991168;28;20478;-75
2022/03/10 05:37:49;;;;;;;18.73;16.17;;;1.70;1.00;2.30;101442.00;;;;5003953;28;20454;-75
2022/03/10 05:40:21;;;;;;;23.57;16.80;;;1.70;1.00;2.30;101440.00;;;;4990860;28;20486;-76
2022/03/10 05:42:52;;;;;;;23.07;17.63;;;1.70;1.00;2.40;101449.00;;;;5009663;28;20538;-75
2022/03/10 05:45:22;;;;;;;22.77;16.63;;;1.70;1.00;2.30;101443.00;;;;5007639;28;20510;-75
2022/03/10 05:47:51;;;;;;;24.73;16.80;;;1.80;1.00;2.40;101439.00;;;;4991344;28;20454;-77
2022/03/10 05:50:20;;;;;;;24.63;18.37;;;1.90;1.00;2.50;101462.00;;;;4990486;28;20525;-77
2022/03/10 05:52:49;;;;;;;23.73;18.60;;;1.80;1.00;2.40;101464.00;;;;5001810;28;20462;-76
2022/03/10 05:55:20;;;;;;;21.63;16.90;;;1.80;1.00;2.30;101442.00;;;;5009449;28;20474;-75
2022/03/10 05:57:48;;;;;;;27.13;18.57;;;1.80;1.00;2.30;101472.00;;;;4999155;28;20447;-77
2022/03/10 06:00:18;;;;;;;22.77;17.80;;;1.80;1.00;2.50;101472.00;;;;4996766;28;20482;-76
2022/03/10 06:02:49;;;;;;;25.00;18.80;;;1.80;1.00;2.40;101476.00;;;;4993881;28;20537;-77
2022/03/10 06:05:17;;;;;;;28.23;19.07;;;1.90;1.00;2.40;101473.00;;;;4989353;28;20855;-77
2022/03/10 06:07:46;;;;;;;30.37;18.30;;;1.80;1.00;2.30;101468.00;;;;4989904;28;20457;-76
2022/03/10 06:10:14;;;;;;;26.70;18.27;;;1.80;1.00;2.30;101460.00;;;;4992571;28;20455;-76
2022/03/10 06:12:45;;;;;;;27.17;17.90;;;1.80;1.00;2.40;101478.00;;;;4994274;28;20832;-75
2022/03/10 06:15:13;;;;;;;25.27;17.97;;;1.80;1.00;2.60;101476.00;;;;5008058;28;20464;-77
2022/03/10 06:17:42;;;;;;;22.07;18.07;;;2.00;1.00;2.60;101478.00;;;;4997199;28;20485;-76
2022/03/10 06:20:22;;;;;;;28.43;17.87;;;2.00;1.00;2.70;101493.00;;;;4999203;28;20482;-77
2022/03/10 06:22:51;;;;;;;29.00;18.80;;;2.10;1.00;2.90;101470.00;;;;4992181;28;20520;-76
2022/03/10 06:25:19;;;;;;;27.60;18.23;;;2.20;1.00;3.10;101484.00;;;;4996155;28;20588;-76
2022/03/10 06:27:54;;;;;;;26.63;18.20;;;2.60;1.00;3.10;101474.00;;;;5014926;28;20458;-76
2022/03/10 06:30:22;;;;;;;24.83;17.63;;;2.50;1.00;3.20;101493.00;;;;5009195;28;20463;-78
2022/03/10 06:32:51;;;;;;;33.10;18.53;;;2.90;1.00;3.40;101488.00;;;;5014935;28;20492;-74
2022/03/10 06:35:19;;;;;;;30.80;18.90;;;2.70;1.00;3.50;101487.00;;;;5013019;28;20469;-77
2022/03/10 06:37:47;;;;;;;20.27;16.40;;;2.80;1.00;3.70;101481.00;;;;5020023;28;20518;-76
2022/03/10 06:40:16;;;;;;;22.17;17.77;;;3.00;1.00;3.80;101492.00;;;;5010865;28;20476;-75
2022/03/10 06:42:44;;;;;;;26.97;17.67;;;3.10;1.00;3.80;101497.00;;;;4999262;28;20466;-75
2022/03/10 06:45:16;;;;;;;25.10;19.13;;;3.20;1.00;3.80;67096.00;;;;4994610;28;20486;-76
2022/03/10 06:47:44;;;;;;;30.03;17.43;;;3.20;1.00;3.90;101488.00;;;;4995000;28;20456;-77
2022/03/10 06:50:23;;;;;;;24.40;18.63;;;3.30;1.00;4.10;101515.00;;;;5002926;28;20446;-77
2022/03/10 06:52:52;;;;;;;27.40;17.40;;;3.40;1.00;217.30;158493.00;;;;4992869;28;20451;-76
2022/03/10 06:55:20;;;;;;;40.70;20.07;;;3.50;1.00;4.30;101512.00;;;;4989835;28;20482;-75
2022/03/10 06:57:48;;;;;;;31.10;18.70;;;3.60;1.00;4.50;101517.00;;;;4984756;28;20845;-75
2022/03/10 07:00:21;;;;;;;31.30;19.03;;;3.70;1.00;4.60;101520.00;;;;4991468;28;20470;-77
2022/03/10 07:02:50;;;;;;;30.03;18.47;;;3.90;1.00;4.50;101523.00;;;;4991739;28;20553;-76
2022/03/10 07:05:21;;;;;;;32.17;19.87;;;3.90;1.00;4.70;101517.00;;;;4990509;28;20470;-75
2022/03/10 07:07:49;;;;;;;27.60;17.80;;;4.00;1.00;4.70;101516.00;;;;4989637;28;20443;-75
2022/03/10 07:10:23;;;;;;;30.13;18.30;;;4.00;1.00;4.70;101526.00;;;;4990640;28;20461;-76
2022/03/10 07:12:52;;;;;;;32.73;18.27;;;4.10;1.00;4.80;101524.00;;;;4990000;28;20569;-76
2022/03/10 07:15:22;;;;;;;28.57;17.80;;;4.20;1.00;4.90;101528.00;;;;4987638;28;21227;-76
2022/03/10 07:17:53;;;;;;;31.27;18.00;;;4.30;1.00;5.00;101524.00;;;;4989401;28;20541;-78
2022/03/10 07:20:22;;;;;;;26.40;17.17;;;4.40;1.00;5.10;101515.00;;;;4986649;28;21484;-77
2022/03/10 07:22:50;;;;;;;27.60;17.50;;;4.50;1.00;5.40;101537.00;;;;5004659;28;20470;-77
2022/03/10 07:25:20;;;;;;;27.93;17.90;;;4.70;1.00;5.30;101527.00;;;;4992805;28;20457;-78
2022/03/10 07:27:48;;;;;;;27.27;15.93;;;4.70;1.00;5.50;101540.00;;;;4990234;28;20490;-77
2022/03/10 07:30:17;;;;;;;30.13;17.63;;;4.90;1.00;5.70;101544.00;;;;4988483;28;20458;-80
2022/03/10 07:32:46;;;;;;;25.53;14.67;;;5.00;1.00;5.70;101534.00;;;;4991617;28;20476;-80
2022/03/10 07:35:14;;;;;;;20.33;15.23;;;5.10;1.00;5.80;101545.00;;;;4992145;28;21071;-75
2022/03/10 07:37:43;;;;;;;24.77;14.20;;;5.20;1.00;5.90;101508.00;;;;4987924;28;20525;-79
2022/03/10 07:40:13;;;;;;;22.20;15.47;;;5.30;1.00;6.00;101530.00;;;;4988977;28;20557;-77
2022/03/10 07:42:41;;;;;;;20.67;13.90;;;5.40;1.00;6.10;101538.00;;;;4985315;28;20463;-76
2022/03/10 07:45:11;;;;;;;18.50;14.90;;;5.50;1.00;6.00;101530.00;;;;4983866;28;21176;-76
2022/03/10 07:47:40;;;;;;;18.73;14.73;;;5.60;1.00;6.20;101540.00;;;;5007613;28;20552;-76
2022/03/10 07:50:11;;;;;;;17.50;13.87;;;5.60;1.00;6.20;101528.00;;;;4989994;28;20469;-77
2022/03/10 07:52:40;;;;;;;17.70;14.13;;;5.70;1.00;6.10;101504.00;;;;5001838;28;20507;-77
2022/03/10 07:55:13;;;;;;;17.60;12.53;;;5.70;1.00;6.30;101530.00;;;;4993101;28;20956;-76
2022/03/10 07:57:41;;;;;;;17.60;14.23;;;5.80;1.00;6.50;101518.00;;;;5004505;28;20483;-76
2022/03/10 08:00:11;;;;;;;20.40;14.53;;;6.00;1.00;6.50;101533.00;;;;4990371;28;21004;-76
2022/03/10 08:02:40;;;;;;;20.03;12.63;;;6.10;1.00;6.60;101537.00;;;;4987210;28;20462;-76
2022/03/10 08:05:10;;;;;;;18.03;13.10;;;6.10;1.00;6.60;101530.00;;;;4989869;28;21027;-77
2022/03/10 08:07:39;;;;;;;19.30;12.20;;;6.20;1.00;6.60;101534.00;;;;4993298;28;20461;-76
2022/03/10 08:10:10;;;;;;;16.30;12.13;;;6.20;1.00;6.90;101528.00;;;;4989025;28;20460;-78
2022/03/10 08:12:38;;;;;;;16.13;12.87;;;6.40;1.00;6.90;101532.00;;;;4999463;28;20474;-77
2022/03/10 08:15:10;;;;;;;16.77;12.87;;;6.80;1.00;7.10;101525.00;;;;4999585;28;20796;-77
2022/03/10 08:17:39;;;;;;;18.37;14.70;;;6.60;1.00;7.20;101522.00;;;;4988762;28;20461;-77
2022/03/10 08:20:10;;;;;;;19.00;13.20;;;6.80;1.00;7.10;101515.00;;;;4988248;28;21077;-76
2022/03/10 08:22:39;;;;;;;16.73;13.20;;;6.90;1.00;7.40;101518.00;;;;4994226;28;20451;-77
2022/03/10 08:25:09;;;;;;;15.07;12.97;;;7.00;1.00;7.40;101525.00;;;;4992732;28;20462;-76
2022/03/10 08:27:37;;;;;;;14.70;12.30;;;7.00;1.00;7.40;101521.00;;;;4987771;28;20572;-77
2022/03/10 08:30:13;;;;;;;16.80;13.00;;;7.00;1.00;7.50;101511.00;;;;4987180;28;20466;-77
2022/03/10 08:32:43;;;;;;;18.17;13.17;;;7.10;1.00;7.70;101525.00;;;;4990474;28;20504;-76
2022/03/10 08:35:16;;;;;;;15.27;12.33;;;7.60;1.00;7.70;101519.00;;;;4993864;28;21086;-77
2022/03/10 08:37:44;;;;;;;16.60;12.57;;;7.40;1.00;7.80;101505.00;;;;4992766;28;20465;-76
2022/03/10 08:40:16;;;;;;;24.80;17.33;;;7.40;1.00;7.80;101515.00;;;;5011397;28;20477;-77
2022/03/10 08:42:45;;;;;;;16.00;12.80;;;7.40;1.00;7.70;101492.00;;;;4994425;28;20629;-76
2022/03/10 08:45:14;;;;;;;14.60;12.27;;;7.30;1.00;7.90;101500.00;;;;4994641;28;20457;-76
2022/03/10 08:47:43;;;;;;;15.63;12.30;;;7.80;1.00;8.00;101502.00;;;;4992670;28;20477;-76
2022/03/10 08:50:13;;;;;;;16.73;12.80;;;7.60;1.00;8.10;101494.00;;;;4984247;28;20544;-77
2022/03/10 08:52:41;;;;;;;19.03;11.80;;;7.70;1.00;8.20;101503.00;;;;4987534;28;20470;-76
2022/03/10 08:55:11;;;;;;;14.20;10.97;;;7.80;1.00;8.20;101495.00;;;;4986693;28;20472;-76
2022/03/10 08:57:40;;;;;;;15.33;11.67;;;7.90;1.00;8.30;101494.00;;;;4987339;28;20541;-76
2022/03/10 09:00:12;;;;;;;17.53;11.63;;;8.00;1.00;8.40;101487.00;;;;4985727;28;20460;-76
2022/03/10 09:02:41;;;;;;;17.10;11.80;;;8.10;1.00;8.50;101480.00;;;;5012007;28;20483;-77
2022/03/10 09:05:13;;;;;;;16.60;11.50;;;8.20;1.00;8.60;101487.00;;;;4994761;28;21341;-76
2022/03/10 09:07:41;;;;;;;15.00;11.87;;;8.30;1.00;8.70;101490.00;;;;5000740;28;20453;-76
2022/03/10 09:10:11;;;;;;;12.83;11.00;;;8.40;1.00;8.60;101504.00;;;;5007122;28;20453;-77
2022/03/10 09:12:40;;;;;;;14.40;12.37;;;8.40;1.00;8.70;101491.00;;;;5012672;28;20463;-77
2022/03/10 09:15:12;;;;;;;15.60;12.57;;;8.50;1.00;8.80;101471.00;;;;5010151;28;20482;-76
2022/03/10 09:17:40;;;;;;;14.40;12.43;;;8.50;1.00;9.00;101475.00;;;;5023456;28;21377;-76
2022/03/10 09:20:11;;;;;;;17.50;12.50;;;8.70;1.00;9.10;101487.00;;;;5018271;28;20466;-77
2022/03/10 09:22:41;;;;;;;15.07;12.20;;;8.80;1.00;9.10;101493.00;;;;5001901;28;20475;-76
2022/03/10 09:25:11;;;;;;;14.40;11.80;;;9.00;1.00;9.20;101475.00;;;;4992427;28;20882;-77
2022/03/10 09:27:41;;;;;;;15.40;12.30;;;8.90;1.00;9.20;101482.00;;;;4990190;28;20459;-76
2022/03/10 09:30:12;;;;;;;18.70;12.60;;;9.00;1.00;9.30;101473.00;;;;4988188;28;20458;-77
2022/03/10 09:32:44;;;;;;;13.63;12.20;;;9.10;1.00;9.30;101477.00;;;;4988685;28;20468;-77
2022/03/10 09:35:15;;;;;;;15.30;12.63;;;9.10;1.00;9.30;101488.00;;;;5001403;28;20478;-77
2022/03/10 09:37:45;;;;;;;14.70;11.43;;;9.10;1.00;9.50;101475.00;;;;4987017;28;21070;-77
2022/03/10 09:40:14;;;;;;;16.87;12.47;;;9.20;1.00;9.50;101456.00;;;;4991429;28;20553;-76
2022/03/10 09:42:47;;;;;;;15.10;12.80;;;9.40;1.00;9.60;101474.00;;;;4982445;28;20486;-77
2022/03/10 09:45:18;;;;;;;15.00;11.90;;;9.30;1.00;9.70;101480.00;;;;4988956;28;20451;-76
2022/03/10 09:47:48;;;;;;;17.00;12.63;;;9.50;1.00;9.80;101485.00;;;;4999841;28;20939;-77
2022/03/10 09:50:19;;;;;;;14.30;10.90;;;9.60;1.00;10.00;101475.00;;;;4990303;28;20460;-77
2022/03/10 09:52:49;;;;;;;15.90;12.93;;;9.80;1.00;10.00;101471.00;;;;4991135;28;20454;-78
2022/03/10 09:55:19;;;;;;;14.70;12.70;;;9.80;1.00;10.20;101476.00;;;;4988173;28;20466;-76
2022/03/10 09:57:49;;;;;;;16.27;12.53;;;9.90;1.00;10.30;101469.00;;;;4985908;28;20814;-77
2022/03/10 10:00:19;;;;;;;14.20;12.33;;;10.10;1.00;10.30;101466.00;;;;5004317;28;20516;-75
2022/03/10 10:02:47;;;;;;;20.80;14.43;;;10.20;1.00;10.40;101480.00;;;;5005621;28;20482;-77
2022/03/10 10:05:24;;;;;;;16.63;12.67;;;10.20;1.00;10.50;101476.00;;;;4996141;28;21026;-77
2022/03/10 10:08:09;;;;;;;18.73;12.60;;;10.30;1.00;10.60;101465.00;;;;5000682;28;20891;-77
2022/03/10 10:10:42;;;;;;;15.90;12.43;;;10.40;1.00;10.60;101466.00;;;;5005770;28;20442;-77
2022/03/10 10:13:27;;;;;;;15.83;13.23;;;10.60;1.00;10.70;101458.00;;;;5006085;28;20523;-76
2022/03/10 10:15:58;;;;;;;13.50;11.70;;;10.50;1.00;10.80;101468.00;;;;5009381;28;20460;-75
2022/03/10 10:18:28;;;;;;;14.70;13.10;;;10.60;1.00;10.90;101455.00;;;;5008041;28;20447;-75
2022/03/10 10:21:10;;;;;;;17.70;12.40;;;10.80;1.00;11.00;101455.00;;;;5003555;28;20798;-75
2022/03/10 10:23:41;;;;;;;15.20;12.60;;;10.90;1.00;11.10;101447.00;;;;4997143;28;20518;-76
2022/03/10 10:26:12;;;;;;;16.17;13.43;;;10.90;1.00;11.20;101445.00;;;;4994278;28;21460;-77
2022/03/10 10:28:48;;;;;;;15.47;12.80;;;11.00;1.00;11.30;101439.00;;;;5000267;28;20525;-76
2022/03/10 10:31:19;;;;;;;18.23;12.80;;;11.20;1.00;11.50;101436.00;;;;4993680;28;20516;-76
2022/03/10 10:34:00;;;;;;;15.43;11.80;;;11.30;1.00;11.70;101455.00;;;;5003113;28;20455;-75
2022/03/10 10:36:30;;;;;;;15.03;11.60;;;11.60;1.00;11.80;101437.00;;;;4984524;28;20478;-73
2022/03/10 10:39:09;;;;;;;14.23;12.73;;;11.70;1.00;11.90;101425.00;;;;5002501;28;20524;-74
2022/03/10 10:41:40;;;;;;;20.90;13.27;;;11.90;1.00;12.00;101443.00;;;;5001798;28;20474;-75
2022/03/10 10:44:09;;;;;;;15.83;13.70;;;11.90;1.00;12.10;101429.00;;;;4992214;28;20455;-75
2022/03/10 10:46:39;;;;;;;13.77;11.90;;;12.00;1.00;12.20;101430.00;;;;4992201;28;20517;-74
2022/03/10 10:49:10;;;;;;;15.47;12.63;;;12.10;1.00;12.30;101423.00;;;;4993400;28;20450;-75
2022/03/10 10:51:42;;;;;;;15.67;12.87;;;12.30;1.00;12.30;101430.00;;;;4990658;28;20469;-76
2022/03/10 10:54:25;;;;;;;13.10;11.73;;;12.30;1.00;12.40;101418.00;;;;5005078;28;20565;-76
2022/03/10 10:56:58;;;;;;;12.40;11.10;;;12.40;1.00;12.60;101426.00;;;;4998095;28;20477;-76
2022/03/10 10:59:28;;;;;;;16.80;10.80;;;12.60;1.00;12.80;101414.00;;;;4998835;28;20526;-76
2022/03/10 11:02:11;;;;;;;16.23;11.57;;;12.80;1.00;12.90;101420.00;;;;5009892;28;21409;-78
2022/03/10 11:04:41;;;;;;;15.43;12.50;;;13.30;1.00;13.00;101392.00;;;;5009039;28;20449;-76
2022/03/10 11:07:11;;;;;;;11.73;9.73;;;13.20;1.00;13.10;101410.00;;;;5004674;28;20478;-78
2022/03/10 11:09:43;;;;;;;15.73;10.97;;;13.10;1.00;13.20;101396.00;;;;5029457;28;21150;-77